Hauptseite
METAR-TAF:

METAR-TAF

Flughäfen :

Flughafen Kasane

Kasane, Botsuana

Breite: 17-49S, Länge: 025-09E, Höhe: 968 m

Beobachtung

Neuester Wetterbericht von vor 58 Minuten, um 14:00 UTC
Wind 5 kt aus Ost/Südost, variierte zwischen Ost und Süd
Temperatur 25°C
Luftfeuchtigkeit 36%
Luftdruck 1022 hPa
Sichtweite 10 km oder mehr
Durchbrochene Bewölkung in der Höhe von 3000 ft

METAR: FBKE 061400Z 12005KT 080V170 9999 BKN030 25/09 Q1022

Zeit: 16:58 (14:58 UTC)

Prognose

Neuester Wetterbericht von vor 5 Stunden und 58 Minuten, um 09:00 UTC
Gültige Prognose vom 06 um 12 UTC bis 06 um 21 UTC
Wind 9 kt aus Ost/Südost
Sichtweite 10 km oder mehr
keine Wolken unter 1500 m und keine Kumulonimbus oder Gewitterwolken

TAF: FBKE 060900Z 0612/0621 11009KT CAVOK

Wetterbeobachtungen und Prognosen von mehr als 4000 Flughäfen (METAR und TAF Bericht).

Die verfügbaren Stationen werden durch gelbe und rote Markierungen auf der Karte dargestellt.

Führen Sie die Maus auf sie, um den Namen der Station zu sehen.

Darauf klicken, um die Beobachtung von Wetterbeobachtungen und Prognosen zu sehen.

Um die Karte zu ändern : klicken Sie auf den grünen Tasten mit einem schwarzen Kreuz Zum Vergrößern, auf den grünen Button mit einem Gedankenstrich zu verkleinern, oder auf die grünen Pfeile für benachbarte Karten.


METAR-TAF: